• Join FlightAware (Why Join?)
  • Login
  • US Flag 
09:03PM EDT


 

Airport Tracker/Info


-or-


 

Live Flight TrackerFlight Track Log ✈ N100PM ✈ 06-Nov-2013 ✈ KOCF - KAPF

Flight Track Log - Related Links

Times and Time Zones

All times are in EST time to prevent confusion due to time zone crossing. See the N100PM flight status page for this flight to view local times or setup timezone preferences in your user account.

Time Position Orientation Groundspeed Altitude Reporting Facility
EST Latitude Longitude Course Direction KTS MPH feet Rate Location/Type
12:45PM 29.1772 -82.2267 64° Northeast 77 89 500  Level Jacksonville Center
12:46PM 29.1875 -82.2028 64° Northeast 67 77 1,500 660 Climbing Jacksonville Center
12:47PM 29.1831 -82.1742 100° East 87 100 2,200 540 Climbing Jacksonville Center
12:48PM 29.1622 -82.1672 164° South 98 113 2,700 540 Climbing Jacksonville Center
12:49PM 29.1372 -82.1722 190° South 94 108 3,300 540 Climbing Jacksonville Center
12:50PM 29.1142 -82.1725 181° South 91 105 3,800 540 Climbing Jacksonville Center
12:51PM 29.0869 -82.1656 167° South 91 105 4,400 480 Climbing Jacksonville Center
12:52PM 29.0578 -82.1633 176° South 89 102 5,000 240 Climbing Jacksonville Center
12:53PM 29.0286 -82.1611 176° South 102 117 5,000  Level Jacksonville Center
12:54PM 28.9994 -82.1636 184° South 119 137 5,000  Level Jacksonville Center
12:56PM 28.9658 -82.1569 170° South 111 128 5,000  Level Jacksonville Center
12:57PM 28.9367 -82.1547 176° South 105 121 5,000  Level Jacksonville Center
12:57PM 28.9094 -82.1478 167° South 108 124 5,000  Level Jacksonville Center
12:59PM 28.8739 -82.1458 177° South 106 122 5,000  Level Jacksonville Center
01:00PM 28.8447 -82.1436 176° South 106 122 5,000  Level Jacksonville Center
01:01PM 28.8156 -82.1461 184° South 107 123 5,000  Level Jacksonville Center
01:02PM 28.7822 -82.1369 166° South 107 123 5,000  Level Jacksonville Center
01:03PM 28.7569 -82.1275 162° South 105 121 5,000 -60 Level Jacksonville Center
01:05PM 28.7000 -82.1000 157° South 112 129 4,900 -60 Descending Tampa TRACON
01:06PM 28.6833 -82.1000 180° South 117 135 4,900  Level Tampa TRACON
01:06PM 28.6667 -82.1000 180° South 117 135 4,900  Level Tampa TRACON
01:07PM 28.6333 -82.1167 204° Southwest 115 132 4,900  Level Tampa TRACON
01:08PM 28.6000 -82.1333 204° Southwest 113 130 4,900  Level Tampa TRACON
01:09PM 28.5833 -82.1333 180° South 115 132 4,900  Level Tampa TRACON
01:10PM 28.5500 -82.1333 180° South 111 128 4,900  Level Tampa TRACON
01:11PM 28.5167 -82.1333 180° South 107 123 4,900  Level Tampa TRACON
01:12PM 28.4833 -82.1167 156° South 109 125 4,900  Level Tampa TRACON
01:13PM 28.4500 -82.1167 180° South 111 128 4,900  Level Tampa TRACON
01:14PM 28.4333 -82.1167 180° South 110 127 4,900  Level Tampa TRACON
01:15PM 28.4000 -82.1000 156° South 110 127 4,900  Level Tampa TRACON
01:16PM 28.3667 -82.1000 180° South 111 128 4,900  Level Tampa TRACON
01:17PM 28.3333 -82.1000 180° South 109 125 4,900  Level Tampa TRACON
01:18PM 28.3000 -82.1000 180° South 108 124 5,000  Climbing Tampa TRACON
01:19PM 28.2667 -82.0833 156° South 113 130 4,900  Descending Tampa TRACON
01:20PM 28.2500 -82.0833 180° South 110 127 5,000  Climbing Tampa TRACON
01:21PM 28.2167 -82.0833 180° South 116 133 4,900  Descending Tampa TRACON
01:22PM 28.1833 -82.0667 156° South 115 132 5,000  Climbing Tampa TRACON
01:23PM 28.1500 -82.0667 180° South 113 130 5,000 -60 Level Tampa TRACON
01:24PM 28.1167 -82.0500 156° South 112 129 4,900  Descending Tampa TRACON
01:25PM 28.0833 -82.0500 180° South 112 129 5,000  Climbing Tampa TRACON
01:27PM 28.0281 -82.0311 163° South 92 106 5,000 -60 Level Miami Center
01:28PM 27.9992 -82.0228 166° South 103 119 4,900  Descending Miami Center
01:29PM 27.9683 -82.0119 163° South 108 124 5,000  Climbing Miami Center
01:30PM 27.9369 -82.0106 178° South 108 124 4,900  Descending Miami Center
01:31PM 27.9056 -82.0114 181° South 108 124 5,000  Climbing Miami Center
01:32PM 27.8769 -82.0006 161° South 108 124 5,000  Level Miami Center
01:33PM 27.8544 -81.9833 146° Southeast 103 119 5,100  Climbing Miami Center
01:34PM 27.8303 -81.9633 144° Southeast 108 124 5,000  Descending Miami Center
01:35PM 27.8122 -81.9367 127° Southeast 108 124 5,100  Climbing Miami Center
01:36PM 27.7967 -81.9103 124° Southeast 108 124 5,000 -60 Descending Miami Center
01:37PM 27.7703 -81.8903 146° Southeast 103 119 5,000 -60 Level Miami Center
01:38PM 27.7414 -81.8797 162° South 110 127 4,900  Descending Miami Center
01:39PM 27.7167 -81.8717 164° South 110 127 5,000  Climbing Miami Center
01:40PM 27.6878 -81.8586 158° South 110 127 5,000  Level Miami Center
01:41PM 27.6547 -81.8478 164° South 110 127 5,000 -60 Level Miami Center
01:42PM 27.6258 -81.8372 162° South 110 127 4,900  Descending Miami Center
01:43PM 27.5972 -81.8242 158° South 110 127 5,000  Climbing Miami Center
01:44PM 27.5703 -81.8161 165° South 110 127 5,000  Level Miami Center
01:45PM 27.5414 -81.8078 166° South 110 127 5,000  Level Miami Center
01:46PM 27.5125 -81.7994 166° South 110 127 5,000  Level Miami Center
01:47PM 27.4836 -81.7889 162° South 105 121 5,000 -60 Level Miami Center
01:49PM 27.4236 -81.7700 164° South 105 121 4,900 -60 Descending Miami Center
01:50PM 27.3928 -81.7592 163° South 110 127 4,900  Level Miami Center
01:51PM 27.3639 -81.7511 166° South 110 127 5,000  Climbing Miami Center
01:52PM 27.3350 -81.7406 162° South 105 121 5,000  Level Miami Center
01:53PM 27.3061 -81.7275 158° South 105 121 5,000  Level Miami Center
01:54PM 27.2753 -81.7169 163° South 110 127 5,000  Level Miami Center
01:55PM 27.2464 -81.7086 166° South 110 127 5,000  Level Miami Center
01:56PM 27.2153 -81.6981 163° South 110 127 5,000  Level Miami Center
01:57PM 27.1844 -81.6875 163° South 110 127 5,000  Level Miami Center
01:58PM 27.1533 -81.6792 167° South 110 127 5,000  Level Miami Center
01:59PM 27.1222 -81.6708 167° South 110 127 5,000  Level Miami Center
02:00PM 27.0914 -81.6603 163° South 115 132 5,000  Level Miami Center
02:01PM 27.0603 -81.6494 163° South 115 132 5,000  Level Miami Center
02:02PM 27.0314 -81.6392 162° South 115 132 5,000  Level Miami Center
02:03PM 26.9939 -81.6397 181° South 115 132 5,000  Level Miami Center
02:04PM 26.9647 -81.6411 182° South 115 132 5,000  Level Miami Center
02:05PM 26.9311 -81.6419 181° South 115 132 5,000  Level Miami Center
02:07PM 26.8859 -81.6491 188° South  Level FlightAware Approximate
02:14PM 26.6818 -81.6813 188° South  Level FlightAware Approximate
02:15PM 26.6526 -81.6859 188° South  Level FlightAware Approximate
02:16PM 26.6234 -81.6905 188° South  Level FlightAware Approximate
02:17PM 26.5943 -81.6950 188° South  Level FlightAware Approximate
02:18PM 26.5651 -81.6996 188° South  Level FlightAware Approximate
02:19PM 26.5359 -81.7042 188° South  Level FlightAware Approximate
02:20PM 26.5068 -81.7088 188° South  Level FlightAware Approximate
02:21PM 26.4776 -81.7133 188° South  Level FlightAware Approximate
02:22PM 26.4484 -81.7179 188° South  Level FlightAware Approximate
02:23PM 26.4192 -81.7225 188° South  Level FlightAware Approximate
02:24PM 26.3901 -81.7271 188° South  Level FlightAware Approximate
02:25PM 26.3609 -81.7316 188° South  Level FlightAware Approximate
02:26PM 26.3317 -81.7359 187° South  Level FlightAware Approximate
02:27PM 26.3025 -81.7401 187° South  Level FlightAware Approximate
02:28PM 26.2733 -81.7443 187° South  Level FlightAware Approximate
02:29PM 26.2441 -81.7485 187° South  Level FlightAware Approximate
02:30PM 26.2150 -81.7537 190° South  Level FlightAware Approximate
02:31PM 26.1860 -81.7595 190° South  Level FlightAware Approximate
02:32PM 26.1570 -81.7653 190° South  Level FlightAware Approximate
02:33PM 26.1500 -81.7667 190° South  Level FlightAware Approximate
02:34PM 26.1524 -81.7756 190° South  Level Estimated
02:35PM 26.1524 -81.7756 190° South  Level Estimated
02:36PM 26.1524 -81.7756 190° South  Level Estimated
02:37PM 26.1524 -81.7756 190° South  Level Estimated
02:38PM 26.1524 -81.7756 190° South  Level Estimated
02:39PM 26.1524 -81.7756 190° South  Level Estimated
02:40PM 26.1524 -81.7756 190° South  Level Estimated
02:41PM 26.1524 -81.7756 190° South  Level Estimated
02:42PM 26.1524 -81.7756 190° South  Level Estimated
02:43PM 26.1524 -81.7756 190° South  Level Estimated